sensor_id;sensor_type;location;lat;lon;timestamp;P1;durP1;ratioP1;P2;durP2;ratioP2
16272;SDS011;8244;50.044;9.006;2022-09-16T07:48:01;6.88;;;1.85;;
16272;SDS011;8244;50.044;9.006;2022-09-16T07:53:23;5.40;;;1.40;;
16272;SDS011;8244;50.044;9.006;2022-09-16T07:58:46;5.18;;;1.77;;
16272;SDS011;8244;50.044;9.006;2022-09-16T08:04:09;5.32;;;1.60;;
16272;SDS011;8244;50.044;9.006;2022-09-16T08:09:31;6.70;;;1.58;;
16272;SDS011;8244;50.044;9.006;2022-09-16T08:14:53;7.47;;;1.80;;
16272;SDS011;8244;50.044;9.006;2022-09-16T08:20:16;8.23;;;1.80;;
16272;SDS011;8244;50.044;9.006;2022-09-16T08:25:38;7.25;;;1.60;;
16272;SDS011;8244;50.044;9.006;2022-09-16T08:31:00;5.78;;;1.63;;
16272;SDS011;8244;50.044;9.006;2022-09-16T08:36:24;6.03;;;1.38;;
16272;SDS011;8244;50.044;9.006;2022-09-16T08:41:54;8.68;;;1.90;;
16272;SDS011;8244;50.044;9.006;2022-09-16T08:47:33;5.88;;;1.75;;
16272;SDS011;8244;50.044;9.006;2022-09-16T08:53:04;6.43;;;1.52;;
16272;SDS011;8244;50.044;9.006;2022-09-16T08:58:40;5.63;;;1.90;;
16272;SDS011;8244;50.044;9.006;2022-09-16T09:04:05;4.20;;;1.70;;
16272;SDS011;8244;50.044;9.006;2022-09-16T09:09:35;5.93;;;1.80;;
16272;SDS011;8244;50.044;9.006;2022-09-16T09:15:18;9.30;;;1.95;;
16272;SDS011;8244;50.044;9.006;2022-09-16T09:20:52;7.37;;;2.10;;
16272;SDS011;8244;50.044;9.006;2022-09-16T09:26:26;5.78;;;2.55;;
16272;SDS011;8244;50.044;9.006;2022-09-16T09:31:56;5.43;;;2.00;;
16272;SDS011;8244;50.044;9.006;2022-09-16T09:37:29;5.93;;;1.80;;
16272;SDS011;8244;50.044;9.006;2022-09-16T09:43:07;5.25;;;1.80;;
16272;SDS011;8244;50.044;9.006;2022-09-16T09:48:34;5.80;;;1.77;;
16272;SDS011;8244;50.044;9.006;2022-09-16T09:54:00;6.95;;;1.90;;
16272;SDS011;8244;50.044;9.006;2022-09-16T09:59:28;5.20;;;2.00;;
16272;SDS011;8244;50.044;9.006;2022-09-16T10:04:52;4.72;;;1.85;;
16272;SDS011;8244;50.044;9.006;2022-09-16T10:10:15;4.55;;;1.60;;
16272;SDS011;8244;50.044;9.006;2022-09-16T10:15:40;5.72;;;1.50;;
16272;SDS011;8244;50.044;9.006;2022-09-16T10:21:04;4.15;;;1.27;;
16272;SDS011;8244;50.044;9.006;2022-09-16T10:26:27;4.10;;;1.30;;
16272;SDS011;8244;50.044;9.006;2022-09-16T10:31:50;5.60;;;1.50;;
16272;SDS011;8244;50.044;9.006;2022-09-16T10:37:14;4.80;;;1.20;;
16272;SDS011;8244;50.044;9.006;2022-09-16T10:42:38;3.60;;;1.10;;
16272;SDS011;8244;50.044;9.006;2022-09-16T10:48:01;4.10;;;1.02;;
16272;SDS011;8244;50.044;9.006;2022-09-16T10:53:35;4.20;;;1.33;;
16272;SDS011;8244;50.044;9.006;2022-09-16T10:59:02;5.72;;;1.25;;
16272;SDS011;8244;50.044;9.006;2022-09-16T11:10:15;3.72;;;1.17;;
16272;SDS011;8244;50.044;9.006;2022-09-16T11:15:48;4.28;;;1.10;;
16272;SDS011;8244;50.044;9.006;2022-09-16T11:21:28;4.63;;;1.45;;
16272;SDS011;8244;50.044;9.006;2022-09-16T11:27:06;4.80;;;1.10;;
16272;SDS011;8244;50.044;9.006;2022-09-16T11:32:49;5.10;;;1.25;;
16272;SDS011;8244;50.044;9.006;2022-09-16T11:38:22;3.97;;;1.17;;
16272;SDS011;8244;50.044;9.006;2022-09-16T11:44:04;3.53;;;1.10;;
16272;SDS011;8244;50.044;9.006;2022-09-16T11:49:40;4.22;;;1.25;;
16272;SDS011;8244;50.044;9.006;2022-09-16T11:55:18;3.47;;;0.98;;
16272;SDS011;8244;50.044;9.006;2022-09-16T12:00:47;3.13;;;1.20;;
16272;SDS011;8244;50.044;9.006;2022-09-16T12:06:13;7.70;;;1.15;;
16272;SDS011;8244;50.044;9.006;2022-09-16T12:11:41;3.42;;;1.17;;
16272;SDS011;8244;50.044;9.006;2022-09-16T12:17:06;2.08;;;0.95;;
16272;SDS011;8244;50.044;9.006;2022-09-16T12:22:33;5.75;;;1.08;;
16272;SDS011;8244;50.044;9.006;2022-09-16T12:28:01;1.65;;;1.02;;
16272;SDS011;8244;50.044;9.006;2022-09-16T12:33:26;4.63;;;0.98;;
16272;SDS011;8244;50.044;9.006;2022-09-16T12:38:52;5.45;;;1.27;;
16272;SDS011;8244;50.044;9.006;2022-09-16T12:50:33;2.42;;;1.00;;
16272;SDS011;8244;50.044;9.006;2022-09-16T12:56:07;1.42;;;0.70;;
16272;SDS011;8244;50.044;9.006;2022-09-16T13:01:35;1.88;;;0.82;;
16272;SDS011;8244;50.044;9.006;2022-09-16T13:07:01;1.67;;;0.63;;
16272;SDS011;8244;50.044;9.006;2022-09-16T13:12:25;3.63;;;0.88;;
16272;SDS011;8244;50.044;9.006;2022-09-16T13:17:48;0.95;;;0.60;;
16272;SDS011;8244;50.044;9.006;2022-09-16T13:23:15;2.30;;;0.88;;
16272;SDS011;8244;50.044;9.006;2022-09-16T13:28:40;1.42;;;0.75;;
16272;SDS011;8244;50.044;9.006;2022-09-16T13:34:12;2.25;;;0.85;;
16272;SDS011;8244;50.044;9.006;2022-09-16T13:39:37;1.95;;;0.98;;
16272;SDS011;8244;50.044;9.006;2022-09-16T13:44:59;0.57;;;0.57;;
16272;SDS011;8244;50.044;9.006;2022-09-16T13:50:22;2.53;;;1.13;;
16272;SDS011;8244;50.044;9.006;2022-09-16T13:55:47;3.03;;;1.25;;
16272;SDS011;8244;50.044;9.006;2022-09-16T14:01:11;3.28;;;1.20;;
16272;SDS011;8244;50.044;9.006;2022-09-16T14:06:44;3.25;;;1.10;;
16272;SDS011;8244;50.044;9.006;2022-09-16T14:12:19;2.90;;;1.20;;
16272;SDS011;8244;50.044;9.006;2022-09-16T14:17:47;1.48;;;0.90;;
16272;SDS011;8244;50.044;9.006;2022-09-16T14:23:14;2.65;;;0.90;;
16272;SDS011;8244;50.044;9.006;2022-09-16T14:28:39;3.70;;;0.90;;
16272;SDS011;8244;50.044;9.006;2022-09-16T14:34:02;5.03;;;1.10;;
16272;SDS011;8244;50.044;9.006;2022-09-16T14:39:28;3.08;;;1.00;;
16272;SDS011;8244;50.044;9.006;2022-09-16T14:44:53;1.70;;;0.98;;
16272;SDS011;8244;50.044;9.006;2022-09-16T14:50:18;2.10;;;1.00;;
16272;SDS011;8244;50.044;9.006;2022-09-16T14:55:46;2.78;;;1.02;;
16272;SDS011;8244;50.044;9.006;2022-09-16T15:01:12;1.98;;;0.98;;
16272;SDS011;8244;50.044;9.006;2022-09-16T15:06:39;2.42;;;1.10;;
16272;SDS011;8244;50.044;9.006;2022-09-16T15:12:12;3.08;;;1.10;;
16272;SDS011;8244;50.044;9.006;2022-09-16T15:17:44;2.00;;;1.00;;
16272;SDS011;8244;50.044;9.006;2022-09-16T15:23:19;4.20;;;1.42;;
16272;SDS011;8244;50.044;9.006;2022-09-16T15:28:50;1.75;;;1.08;;
16272;SDS011;8244;50.044;9.006;2022-09-16T15:34:20;3.00;;;1.20;;
16272;SDS011;8244;50.044;9.006;2022-09-16T15:39:43;5.07;;;1.10;;
16272;SDS011;8244;50.044;9.006;2022-09-16T15:45:10;1.77;;;1.30;;
16272;SDS011;8244;50.044;9.006;2022-09-16T15:50:39;4.57;;;1.55;;
16272;SDS011;8244;50.044;9.006;2022-09-16T15:56:05;3.28;;;1.45;;
16272;SDS011;8244;50.044;9.006;2022-09-16T16:01:42;2.75;;;1.08;;
16272;SDS011;8244;50.044;9.006;2022-09-16T16:07:08;3.15;;;1.20;;
16272;SDS011;8244;50.044;9.006;2022-09-16T16:12:30;2.55;;;0.90;;
16272;SDS011;8244;50.044;9.006;2022-09-16T16:17:52;4.00;;;1.10;;
16272;SDS011;8244;50.044;9.006;2022-09-16T16:23:18;1.88;;;0.75;;
16272;SDS011;8244;50.044;9.006;2022-09-16T16:28:40;2.55;;;1.10;;
16272;SDS011;8244;50.044;9.006;2022-09-16T16:34:02;1.88;;;0.88;;
16272;SDS011;8244;50.044;9.006;2022-09-16T16:39:26;2.10;;;0.93;;
16272;SDS011;8244;50.044;9.006;2022-09-16T16:44:48;1.48;;;0.90;;
16272;SDS011;8244;50.044;9.006;2022-09-16T16:50:10;1.60;;;0.90;;
16272;SDS011;8244;50.044;9.006;2022-09-16T16:55:33;2.08;;;1.10;;
16272;SDS011;8244;50.044;9.006;2022-09-16T17:00:55;2.15;;;1.00;;
16272;SDS011;8244;50.044;9.006;2022-09-16T17:06:26;1.55;;;1.20;;
16272;SDS011;8244;50.044;9.006;2022-09-16T17:11:50;1.40;;;1.02;;
16272;SDS011;8244;50.044;9.006;2022-09-16T17:17:14;3.30;;;1.30;;
16272;SDS011;8244;50.044;9.006;2022-09-16T17:22:36;2.55;;;1.02;;
16272;SDS011;8244;50.044;9.006;2022-09-16T17:27:59;2.35;;;1.75;;
16272;SDS011;8244;50.044;9.006;2022-09-16T17:33:21;4.05;;;1.35;;
16272;SDS011;8244;50.044;9.006;2022-09-16T17:38:43;4.80;;;1.90;;
16272;SDS011;8244;50.044;9.006;2022-09-16T17:44:06;1.92;;;1.13;;
16272;SDS011;8244;50.044;9.006;2022-09-16T17:49:28;3.85;;;1.40;;
16272;SDS011;8244;50.044;9.006;2022-09-16T17:54:50;4.10;;;1.40;;
16272;SDS011;8244;50.044;9.006;2022-09-16T18:00:14;2.63;;;1.30;;
16272;SDS011;8244;50.044;9.006;2022-09-16T18:05:36;4.40;;;1.30;;
16272;SDS011;8244;50.044;9.006;2022-09-16T18:10:59;3.25;;;1.38;;
16272;SDS011;8244;50.044;9.006;2022-09-16T18:16:23;2.45;;;1.23;;
16272;SDS011;8244;50.044;9.006;2022-09-16T18:21:46;5.35;;;1.70;;
16272;SDS011;8244;50.044;9.006;2022-09-16T18:27:08;1.95;;;1.30;;
16272;SDS011;8244;50.044;9.006;2022-09-16T18:32:32;1.95;;;1.33;;
16272;SDS011;8244;50.044;9.006;2022-09-16T18:37:54;2.85;;;1.65;;
16272;SDS011;8244;50.044;9.006;2022-09-16T18:43:16;3.95;;;1.73;;
16272;SDS011;8244;50.044;9.006;2022-09-16T18:48:40;4.03;;;1.60;;
16272;SDS011;8244;50.044;9.006;2022-09-16T18:54:04;3.50;;;1.67;;
16272;SDS011;8244;50.044;9.006;2022-09-16T18:59:29;2.70;;;1.63;;
16272;SDS011;8244;50.044;9.006;2022-09-16T19:04:54;2.05;;;1.45;;
16272;SDS011;8244;50.044;9.006;2022-09-16T19:10:16;3.00;;;1.40;;
16272;SDS011;8244;50.044;9.006;2022-09-16T19:15:38;3.92;;;1.95;;
16272;SDS011;8244;50.044;9.006;2022-09-16T19:21:01;2.75;;;1.60;;
16272;SDS011;8244;50.044;9.006;2022-09-16T19:26:24;2.85;;;1.88;;
16272;SDS011;8244;50.044;9.006;2022-09-16T19:31:47;2.75;;;1.63;;
16272;SDS011;8244;50.044;9.006;2022-09-16T19:37:12;2.50;;;1.50;;
16272;SDS011;8244;50.044;9.006;2022-09-16T19:42:34;4.80;;;1.70;;
16272;SDS011;8244;50.044;9.006;2022-09-16T19:47:56;3.25;;;1.63;;
16272;SDS011;8244;50.044;9.006;2022-09-16T19:53:19;2.60;;;1.50;;
16272;SDS011;8244;50.044;9.006;2022-09-16T19:58:41;2.15;;;1.50;;
16272;SDS011;8244;50.044;9.006;2022-09-16T20:04:04;3.25;;;1.73;;
16272;SDS011;8244;50.044;9.006;2022-09-16T20:09:28;4.15;;;1.73;;
16272;SDS011;8244;50.044;9.006;2022-09-16T20:14:50;5.50;;;2.17;;
16272;SDS011;8244;50.044;9.006;2022-09-16T20:20:12;4.95;;;1.90;;
16272;SDS011;8244;50.044;9.006;2022-09-16T20:25:35;2.90;;;1.70;;
16272;SDS011;8244;50.044;9.006;2022-09-16T20:30:58;2.33;;;1.70;;
16272;SDS011;8244;50.044;9.006;2022-09-16T20:36:20;3.90;;;1.50;;
16272;SDS011;8244;50.044;9.006;2022-09-16T20:41:45;3.42;;;1.50;;
16272;SDS011;8244;50.044;9.006;2022-09-16T20:47:09;1.65;;;1.30;;
16272;SDS011;8244;50.044;9.006;2022-09-16T20:52:30;1.73;;;1.40;;
16272;SDS011;8244;50.044;9.006;2022-09-16T20:57:54;3.78;;;1.60;;
16272;SDS011;8244;50.044;9.006;2022-09-16T21:03:16;6.45;;;1.70;;
16272;SDS011;8244;50.044;9.006;2022-09-16T21:08:39;2.72;;;1.75;;
16272;SDS011;8244;50.044;9.006;2022-09-16T21:14:03;4.13;;;1.73;;
16272;SDS011;8244;50.044;9.006;2022-09-16T21:19:26;4.05;;;1.83;;
16272;SDS011;8244;50.044;9.006;2022-09-16T21:24:48;2.63;;;1.60;;
16272;SDS011;8244;50.044;9.006;2022-09-16T21:30:12;3.38;;;1.63;;
16272;SDS011;8244;50.044;9.006;2022-09-16T21:35:34;4.88;;;1.50;;
16272;SDS011;8244;50.044;9.006;2022-09-16T21:40:56;4.10;;;1.40;;
16272;SDS011;8244;50.044;9.006;2022-09-16T21:46:22;4.38;;;1.67;;
16272;SDS011;8244;50.044;9.006;2022-09-16T21:51:45;3.72;;;1.67;;
16272;SDS011;8244;50.044;9.006;2022-09-16T21:57:07;4.68;;;2.28;;
16272;SDS011;8244;50.044;9.006;2022-09-16T22:02:32;4.65;;;1.40;;
16272;SDS011;8244;50.044;9.006;2022-09-16T22:07:54;4.75;;;1.70;;
16272;SDS011;8244;50.044;9.006;2022-09-16T22:13:16;7.45;;;1.52;;
16272;SDS011;8244;50.044;9.006;2022-09-16T22:18:39;5.05;;;1.52;;
16272;SDS011;8244;50.044;9.006;2022-09-16T22:24:01;3.35;;;1.20;;
16272;SDS011;8244;50.044;9.006;2022-09-16T22:29:24;4.22;;;1.85;;
16272;SDS011;8244;50.044;9.006;2022-09-16T22:34:47;4.53;;;1.63;;
16272;SDS011;8244;50.044;9.006;2022-09-16T22:40:10;6.93;;;2.05;;
16272;SDS011;8244;50.044;9.006;2022-09-16T22:45:32;3.83;;;1.77;;
16272;SDS011;8244;50.044;9.006;2022-09-16T22:50:56;3.67;;;1.90;;
16272;SDS011;8244;50.044;9.006;2022-09-16T22:56:20;4.28;;;1.77;;
16272;SDS011;8244;50.044;9.006;2022-09-16T23:01:44;4.50;;;1.70;;
16272;SDS011;8244;50.044;9.006;2022-09-16T23:07:08;4.90;;;1.80;;
16272;SDS011;8244;50.044;9.006;2022-09-16T23:12:30;3.78;;;1.63;;
16272;SDS011;8244;50.044;9.006;2022-09-16T23:17:55;4.63;;;1.60;;
16272;SDS011;8244;50.044;9.006;2022-09-16T23:23:18;6.38;;;1.88;;
16272;SDS011;8244;50.044;9.006;2022-09-16T23:28:40;5.03;;;1.80;;
16272;SDS011;8244;50.044;9.006;2022-09-16T23:34:03;4.38;;;2.08;;
16272;SDS011;8244;50.044;9.006;2022-09-16T23:39:28;5.22;;;1.77;;
16272;SDS011;8244;50.044;9.006;2022-09-16T23:44:50;5.32;;;1.85;;
16272;SDS011;8244;50.044;9.006;2022-09-16T23:50:12;6.28;;;2.00;;
16272;SDS011;8244;50.044;9.006;2022-09-16T23:55:38;3.75;;;1.80;;
